createdAt,value
2023-05-01T00:00:52.887Z,3.70
2023-05-01T00:01:52.868Z,3.00
2023-05-01T00:02:52.963Z,3.60
2023-05-01T00:03:53.196Z,3.50
2023-05-01T00:04:52.841Z,3.10
2023-05-01T00:05:52.827Z,2.70
2023-05-01T00:06:53.517Z,2.80
2023-05-01T00:07:52.822Z,2.90
2023-05-01T00:08:52.802Z,2.60
2023-05-01T00:09:52.783Z,2.60
2023-05-01T00:10:52.777Z,2.80
2023-05-01T00:11:52.766Z,2.80
2023-05-01T00:12:52.773Z,2.90
2023-05-01T00:13:52.746Z,3.20
2023-05-01T00:14:52.726Z,3.80
2023-05-01T00:15:52.762Z,3.70
2023-05-01T00:16:52.969Z,2.80
2023-05-01T00:17:52.722Z,3.50
2023-05-01T00:18:52.690Z,2.80
2023-05-01T00:19:52.677Z,2.70
2023-05-01T00:20:52.675Z,2.70
2023-05-01T00:21:52.674Z,3.00
2023-05-01T00:22:52.672Z,3.10
2023-05-01T00:23:52.640Z,2.80
2023-05-01T00:24:52.627Z,3.30
2023-05-01T00:25:52.648Z,3.20
2023-05-01T00:26:52.610Z,2.90
2023-05-01T00:27:52.601Z,3.40
2023-05-01T00:28:52.585Z,2.70
2023-05-01T00:29:52.576Z,3.30
2023-05-01T00:30:52.572Z,3.30
2023-05-01T00:31:52.621Z,3.10
2023-05-01T00:32:52.581Z,3.50
2023-05-01T00:33:52.532Z,3.50
2023-05-01T00:34:52.525Z,3.90
2023-05-01T00:35:52.510Z,3.20
2023-05-01T00:36:52.503Z,2.80
2023-05-01T00:37:52.500Z,3.10
2023-05-01T00:38:52.488Z,2.90
2023-05-01T00:39:52.472Z,3.70
2023-05-01T00:40:52.462Z,3.30
2023-05-01T00:41:52.449Z,3.70
2023-05-01T00:42:52.451Z,3.20
2023-05-01T00:43:52.433Z,3.50
2023-05-01T00:44:52.435Z,3.50
2023-05-01T00:45:52.455Z,3.20
2023-05-01T00:46:52.401Z,3.90
2023-05-01T00:47:52.413Z,3.10
2023-05-01T00:48:52.377Z,3.30
2023-05-01T00:49:52.368Z,3.60
2023-05-01T00:50:52.354Z,3.00
2023-05-01T00:51:52.347Z,3.20
2023-05-01T00:52:52.345Z,3.10
2023-05-01T00:53:52.328Z,3.20
2023-05-01T00:54:52.312Z,2.80
2023-05-01T00:55:52.299Z,2.90
2023-05-01T00:56:52.320Z,2.80
2023-05-01T00:57:52.291Z,2.70
2023-05-01T00:58:52.269Z,3.00
2023-05-01T00:59:52.260Z,2.80
2023-05-01T01:00:52.380Z,3.00
2023-05-01T01:01:53.806Z,2.60
2023-05-01T01:02:52.271Z,3.20
2023-05-01T01:03:52.248Z,3.40
2023-05-01T01:04:52.267Z,3.00
2023-05-01T01:05:52.199Z,3.00
2023-05-01T01:06:52.186Z,3.20
2023-05-01T01:07:52.178Z,2.70
2023-05-01T01:08:52.163Z,3.00
2023-05-01T01:09:52.150Z,3.00
2023-05-01T01:10:52.142Z,2.50
2023-05-01T01:11:52.129Z,3.40
2023-05-01T01:12:52.130Z,3.00
2023-05-01T01:13:52.110Z,2.90
2023-05-01T01:14:52.114Z,3.30
2023-05-01T01:15:52.088Z,3.00
2023-05-01T01:16:52.114Z,3.00
2023-05-01T01:17:52.106Z,3.20
2023-05-01T01:18:52.055Z,3.10
2023-05-01T01:19:52.037Z,3.10
2023-05-01T01:20:52.044Z,3.40
2023-05-01T01:21:52.023Z,3.80
2023-05-01T01:22:52.029Z,3.20
2023-05-01T01:23:51.998Z,3.20
2023-05-01T01:24:51.992Z,3.20
2023-05-01T01:25:51.978Z,3.40
2023-05-01T01:26:51.976Z,3.60
2023-05-01T01:27:51.970Z,3.20
2023-05-01T01:28:51.963Z,2.90
2023-05-01T01:29:51.934Z,3.00
2023-05-01T01:30:51.948Z,3.20
2023-05-01T01:31:51.916Z,3.10
2023-05-01T01:32:51.987Z,3.10
2023-05-01T01:33:51.904Z,3.20
2023-05-01T01:34:51.886Z,3.30
2023-05-01T01:35:51.868Z,3.60
2023-05-01T01:36:51.861Z,3.80
2023-05-01T01:37:51.852Z,3.60
2023-05-01T01:38:51.865Z,3.90
2023-05-01T01:39:51.879Z,3.70
2023-05-01T01:40:51.821Z,3.30
2023-05-01T01:41:51.810Z,3.10
2023-05-01T01:42:51.806Z,3.50
2023-05-01T01:43:51.802Z,3.30
2023-05-01T01:44:51.789Z,3.30
2023-05-01T01:45:51.847Z,3.50
2023-05-01T01:46:51.761Z,3.70
2023-05-01T01:47:51.797Z,3.20
2023-05-01T01:48:51.755Z,3.20
2023-05-01T01:49:51.730Z,3.30
2023-05-01T01:50:51.721Z,3.40
2023-05-01T01:51:51.713Z,3.40
2023-05-01T01:52:51.701Z,3.00
2023-05-01T01:53:51.703Z,2.60
2023-05-01T01:54:51.680Z,2.60
2023-05-01T01:55:51.669Z,3.00
2023-05-01T01:56:51.658Z,2.90
2023-05-01T01:57:51.659Z,3.70
2023-05-01T01:58:51.663Z,3.40
2023-05-01T01:59:51.628Z,3.30
2023-05-01T02:00:51.612Z,3.60
2023-05-01T02:01:51.688Z,3.20
2023-05-01T02:02:51.725Z,3.50
2023-05-01T02:03:51.709Z,3.70
2023-05-01T02:04:51.603Z,3.80
2023-05-01T02:05:51.564Z,3.80
2023-05-01T02:06:51.572Z,3.40
2023-05-01T02:07:51.570Z,3.90
2023-05-01T02:08:51.557Z,4.20
2023-05-01T02:09:51.523Z,3.70
2023-05-01T02:10:51.514Z,3.50
2023-05-01T02:11:51.507Z,3.80
2023-05-01T02:12:51.500Z,3.70
2023-05-01T02:13:51.487Z,3.60
2023-05-01T02:14:51.484Z,3.80
2023-05-01T02:15:51.487Z,3.60
2023-05-01T02:16:51.457Z,3.50
2023-05-01T02:17:51.489Z,3.10
2023-05-01T02:18:51.445Z,3.10
2023-05-01T02:19:51.421Z,2.90
2023-05-01T02:20:51.414Z,3.00
2023-05-01T02:21:51.397Z,2.70
2023-05-01T02:22:51.393Z,2.40
2023-05-01T02:23:51.398Z,3.20
2023-05-01T02:24:51.378Z,2.90
2023-05-01T02:25:51.357Z,3.20
2023-05-01T02:26:51.350Z,3.00
2023-05-01T02:27:51.347Z,3.20
2023-05-01T02:28:51.351Z,3.40
2023-05-01T02:29:51.314Z,3.80
2023-05-01T02:30:51.313Z,2.90
2023-05-01T02:31:51.340Z,3.60
2023-05-01T02:32:51.335Z,3.20
2023-05-01T02:33:51.287Z,3.50
2023-05-01T02:34:51.274Z,3.70
2023-05-01T02:35:51.254Z,3.50
2023-05-01T02:36:51.249Z,3.80
2023-05-01T02:37:51.246Z,4.00
2023-05-01T02:38:51.302Z,4.20
2023-05-01T02:39:51.215Z,4.10
2023-05-01T02:40:51.207Z,4.10
2023-05-01T02:41:51.202Z,4.60
2023-05-01T02:42:51.182Z,4.10
2023-05-01T02:43:51.184Z,4.20
2023-05-01T02:44:51.165Z,4.40
2023-05-01T02:45:51.153Z,4.40
2023-05-01T02:46:51.156Z,3.90
2023-05-01T02:47:51.218Z,4.50
2023-05-01T02:48:51.138Z,4.60
2023-05-01T02:49:51.113Z,4.40
2023-05-01T02:50:51.100Z,4.10
2023-05-01T02:51:51.093Z,4.00
2023-05-01T02:52:51.075Z,4.40
2023-05-01T02:53:51.078Z,4.40
2023-05-01T02:54:51.063Z,3.90
2023-05-01T02:55:51.066Z,3.80
2023-05-01T02:56:51.035Z,3.90
2023-05-01T02:57:51.029Z,4.00
2023-05-01T02:58:51.027Z,3.20
2023-05-01T02:59:51.012Z,4.20
2023-05-01T03:00:51.028Z,3.80
2023-05-01T03:01:51.116Z,3.80
2023-05-01T03:02:50.993Z,3.70
2023-05-01T03:03:50.989Z,3.70
2023-05-01T03:04:50.956Z,4.00
2023-05-01T03:05:50.950Z,3.60
2023-05-01T03:06:51.074Z,3.50
2023-05-01T03:07:50.931Z,4.00
2023-05-01T03:08:50.927Z,4.00
2023-05-01T03:09:50.920Z,3.80
2023-05-01T03:10:50.891Z,3.90
2023-05-01T03:11:50.882Z,3.60
2023-05-01T03:12:50.872Z,3.90
2023-05-01T03:13:50.877Z,4.20
2023-05-01T03:14:50.849Z,3.90
2023-05-01T03:15:50.874Z,3.50
2023-05-01T03:16:50.935Z,3.80
2023-05-01T03:17:50.856Z,3.70
2023-05-01T03:18:50.818Z,3.40
2023-05-01T03:19:50.795Z,3.40
2023-05-01T03:20:50.786Z,3.80
2023-05-01T03:21:50.777Z,4.10
2023-05-01T03:22:50.766Z,3.70
2023-05-01T03:23:50.775Z,3.90
2023-05-01T03:24:50.885Z,4.20
2023-05-01T03:25:50.735Z,3.80
2023-05-01T03:26:50.727Z,4.80
2023-05-01T03:27:50.741Z,4.70
2023-05-01T03:28:50.716Z,4.80
2023-05-01T03:29:50.695Z,4.60
2023-05-01T03:30:50.691Z,4.30
2023-05-01T03:31:50.726Z,4.30
2023-05-01T03:32:50.685Z,4.50
2023-05-01T03:33:50.675Z,4.10
2023-05-01T03:34:50.697Z,4.40
2023-05-01T03:35:50.632Z,4.30
2023-05-01T03:36:50.623Z,4.30
2023-05-01T03:37:50.615Z,4.20
2023-05-01T03:38:50.632Z,4.60
2023-05-01T03:39:50.604Z,5.00
2023-05-01T03:40:50.581Z,4.60
2023-05-01T03:41:50.579Z,4.70
2023-05-01T03:42:50.559Z,4.90
2023-05-01T03:43:50.562Z,4.80
2023-05-01T03:44:50.544Z,4.40
2023-05-01T03:45:50.566Z,3.90
2023-05-01T03:46:50.517Z,3.80
2023-05-01T03:47:50.647Z,3.70
2023-05-01T03:48:50.502Z,4.00
2023-05-01T03:49:50.491Z,3.70
2023-05-01T03:50:50.476Z,4.20
2023-05-01T03:51:50.467Z,3.90
2023-05-01T03:52:50.457Z,3.50
2023-05-01T03:53:50.610Z,3.50
2023-05-01T03:54:50.436Z,3.50
2023-05-01T03:55:50.424Z,3.90
2023-05-01T03:56:50.416Z,4.00
2023-05-01T03:57:50.406Z,4.20
2023-05-01T03:58:50.395Z,4.10
2023-05-01T03:59:50.399Z,4.40
2023-05-01T04:00:50.380Z,4.20
2023-05-01T04:01:50.417Z,3.90
2023-05-01T04:02:50.610Z,4.00
2023-05-01T04:03:50.437Z,4.50
2023-05-01T04:04:50.343Z,3.80
2023-05-01T04:05:50.326Z,3.80
2023-05-01T04:06:50.393Z,4.10
2023-05-01T04:07:50.313Z,4.70
2023-05-01T04:08:50.289Z,4.80
2023-05-01T04:09:50.298Z,4.10
2023-05-01T04:10:50.271Z,4.10
2023-05-01T04:11:50.296Z,4.50
2023-05-01T04:12:50.326Z,4.20
2023-05-01T04:13:50.249Z,3.90
2023-05-01T04:14:50.244Z,4.30
2023-05-01T04:15:50.272Z,4.50
2023-05-01T04:16:50.216Z,4.20
2023-05-01T04:17:50.298Z,4.10
2023-05-01T04:18:50.195Z,4.20
2023-05-01T04:19:50.203Z,4.60
2023-05-01T04:20:50.180Z,4.40
2023-05-01T04:21:50.167Z,4.70
2023-05-01T04:22:50.177Z,4.80
2023-05-01T04:23:50.153Z,4.70
2023-05-01T04:24:50.148Z,4.20
2023-05-01T04:25:50.129Z,4.30
2023-05-01T04:26:50.121Z,4.40
2023-05-01T04:27:50.106Z,4.20
2023-05-01T04:28:50.099Z,4.10
2023-05-01T04:29:50.095Z,4.50
2023-05-01T04:30:50.078Z,4.30
2023-05-01T04:31:50.089Z,4.60
2023-05-01T04:32:50.077Z,4.80
2023-05-01T04:33:50.049Z,4.70
2023-05-01T04:34:50.044Z,4.50
2023-05-01T04:35:50.029Z,4.70
2023-05-01T04:36:50.008Z,4.70
2023-05-01T04:37:50.007Z,5.10
2023-05-01T04:38:50.000Z,4.10
2023-05-01T04:39:51.115Z,4.20
2023-05-01T04:40:51.087Z,5.30
2023-05-01T04:41:51.082Z,4.70
2023-05-01T04:42:51.071Z,4.70
2023-05-01T04:43:51.056Z,4.40
2023-05-01T04:44:51.063Z,4.80
2023-05-01T04:45:51.049Z,4.90
2023-05-01T04:46:51.070Z,4.50
2023-05-01T04:47:51.040Z,4.60
2023-05-01T04:48:51.010Z,4.70
2023-05-01T04:49:50.992Z,3.50
2023-05-01T04:50:51.994Z,4.10
2023-05-01T04:51:50.983Z,4.30
2023-05-01T04:52:50.970Z,4.70
2023-05-01T04:53:50.969Z,4.10
2023-05-01T04:54:50.961Z,3.80
2023-05-01T04:55:50.957Z,4.40
2023-05-01T04:56:50.936Z,4.60
2023-05-01T04:57:50.922Z,4.50
2023-05-01T04:58:50.916Z,4.70
2023-05-01T04:59:50.919Z,4.80
2023-05-01T05:00:50.898Z,5.00
2023-05-01T05:01:50.905Z,4.10
2023-05-01T05:02:50.925Z,4.10
2023-05-01T05:03:51.077Z,4.30
2023-05-01T05:04:51.033Z,4.90
2023-05-01T05:05:50.856Z,4.70
2023-05-01T05:06:50.853Z,5.10
2023-05-01T05:07:50.823Z,4.80
2023-05-01T05:08:50.820Z,4.60
2023-05-01T05:09:50.820Z,5.10
2023-05-01T05:10:50.798Z,4.40
2023-05-01T05:11:50.789Z,5.00
2023-05-01T05:12:50.782Z,4.90
2023-05-01T05:13:50.767Z,4.10
2023-05-01T05:14:50.755Z,4.90
2023-05-01T05:15:50.754Z,4.90
2023-05-01T05:16:50.870Z,4.90
2023-05-01T05:17:50.780Z,4.30
2023-05-01T05:18:50.722Z,4.80
2023-05-01T05:19:50.707Z,4.70
2023-05-01T05:20:50.734Z,5.40
2023-05-01T05:21:50.685Z,5.10
2023-05-01T05:22:50.694Z,5.10
2023-05-01T05:23:50.676Z,4.80
2023-05-01T05:24:50.654Z,5.60
2023-05-01T05:25:50.659Z,5.60
2023-05-01T05:26:50.632Z,5.50
2023-05-01T05:27:50.628Z,5.60
2023-05-01T05:28:50.621Z,5.00
2023-05-01T05:29:50.615Z,4.80
2023-05-01T05:30:50.608Z,5.00
2023-05-01T05:31:50.649Z,5.10
2023-05-01T05:32:50.597Z,4.60
2023-05-01T05:33:50.574Z,5.10
2023-05-01T05:34:50.556Z,4.80
2023-05-01T05:35:50.559Z,5.00
2023-05-01T05:36:50.545Z,4.90
2023-05-01T05:37:50.527Z,4.50
2023-05-01T05:38:50.520Z,4.20
2023-05-01T05:39:50.516Z,4.50
2023-05-01T05:40:50.524Z,5.20
2023-05-01T05:41:50.497Z,5.50
2023-05-01T05:42:50.482Z,5.50
2023-05-01T05:43:50.475Z,5.10
2023-05-01T05:44:50.466Z,5.10
2023-05-01T05:45:50.504Z,5.30
2023-05-01T05:46:50.441Z,5.20
2023-05-01T05:47:50.504Z,5.30
2023-05-01T05:48:50.431Z,5.50
2023-05-01T05:49:50.475Z,4.70
2023-05-01T05:50:50.408Z,5.40
2023-05-01T05:51:50.395Z,4.90
2023-05-01T05:52:50.386Z,5.10
2023-05-01T05:53:50.378Z,5.70
2023-05-01T05:54:50.365Z,5.20
2023-05-01T05:55:50.369Z,5.30
2023-05-01T05:56:50.356Z,5.20
2023-05-01T05:57:50.332Z,5.20
2023-05-01T05:58:50.346Z,5.30
2023-05-01T05:59:50.313Z,5.50
2023-05-01T06:00:50.336Z,5.40
2023-05-01T06:01:50.305Z,5.60
2023-05-01T06:02:50.324Z,5.20
2023-05-01T06:03:50.299Z,5.40
2023-05-01T06:04:50.274Z,5.20
2023-05-01T06:05:50.279Z,5.40
2023-05-01T06:06:50.283Z,5.00
2023-05-01T06:07:50.231Z,5.50
2023-05-01T06:08:50.227Z,5.80
2023-05-01T06:09:50.241Z,5.70
2023-05-01T06:10:50.199Z,5.40
2023-05-01T06:11:50.280Z,5.20
2023-05-01T06:12:59.321Z,5.50
2023-05-01T06:13:51.188Z,5.40
2023-05-01T06:14:50.173Z,5.80
2023-05-01T06:15:50.240Z,5.10
2023-05-01T06:16:50.145Z,5.50
2023-05-01T06:17:50.224Z,5.30
2023-05-01T06:18:50.127Z,5.40
2023-05-01T06:19:50.282Z,5.10
2023-05-01T06:20:50.183Z,5.10
2023-05-01T06:21:50.170Z,5.80
2023-05-01T06:22:50.160Z,5.50
2023-05-01T06:23:50.116Z,5.60
2023-05-01T06:24:50.147Z,5.00
2023-05-01T06:25:50.101Z,5.30
2023-05-01T06:26:50.156Z,5.50
2023-05-01T06:27:50.139Z,6.10
2023-05-01T06:28:50.030Z,5.50
2023-05-01T06:29:50.032Z,5.30
2023-05-01T06:30:50.029Z,5.60
2023-05-01T06:31:50.187Z,5.80
2023-05-01T06:32:50.093Z,4.90
2023-05-01T06:33:49.985Z,5.70
2023-05-01T06:34:49.976Z,5.90
2023-05-01T06:35:49.985Z,5.40
2023-05-01T06:36:49.954Z,5.70
2023-05-01T06:37:49.945Z,5.10
2023-05-01T06:38:49.940Z,5.40
2023-05-01T06:39:49.922Z,5.30
2023-05-01T06:40:49.920Z,5.60
2023-05-01T06:41:49.903Z,5.40
2023-05-01T06:42:49.888Z,5.30
2023-05-01T06:44:05.127Z,5.50
2023-05-01T06:46:18.085Z,5.40
2023-05-01T06:47:16.821Z,5.80
2023-05-01T06:48:16.424Z,5.60
2023-05-01T06:49:16.432Z,5.50
2023-05-01T06:50:16.413Z,5.50
2023-05-01T06:51:16.392Z,5.80
2023-05-01T06:52:16.396Z,5.20
2023-05-01T06:53:16.370Z,4.90
2023-05-01T06:54:16.366Z,5.40
2023-05-01T06:55:16.368Z,5.80
2023-05-01T06:56:16.352Z,6.20
2023-05-01T06:57:16.324Z,6.00
2023-05-01T06:58:23.517Z,5.20
2023-05-01T06:59:17.302Z,5.30
2023-05-01T07:00:16.302Z,5.40
2023-05-01T07:01:16.406Z,6.00
2023-05-01T07:02:16.328Z,5.50
2023-05-01T07:03:16.283Z,5.10
2023-05-01T07:04:16.255Z,5.40
2023-05-01T07:05:16.252Z,6.30
2023-05-01T07:06:16.313Z,5.90
2023-05-01T07:07:16.256Z,4.90
2023-05-01T07:08:16.217Z,5.90
2023-05-01T07:09:16.229Z,5.40
2023-05-01T07:10:16.359Z,5.70
2023-05-01T07:11:16.177Z,5.60
2023-05-01T07:12:16.200Z,6.00
2023-05-01T07:13:16.186Z,5.40
2023-05-01T07:14:16.188Z,5.20
2023-05-01T07:15:16.144Z,6.10
2023-05-01T07:16:16.180Z,5.30
2023-05-01T07:17:16.121Z,5.70
2023-05-01T07:18:16.112Z,5.30
2023-05-01T07:19:16.102Z,5.00
2023-05-01T07:20:16.087Z,5.40
2023-05-01T07:21:16.089Z,5.50
2023-05-01T07:22:16.074Z,5.20
2023-05-01T07:23:16.049Z,6.10
2023-05-01T07:24:16.053Z,5.00
2023-05-01T07:25:16.044Z,5.50
2023-05-01T07:26:16.048Z,5.10
2023-05-01T07:27:16.056Z,5.20
2023-05-01T07:28:16.001Z,5.20
2023-05-01T07:29:15.994Z,5.30
2023-05-01T07:30:15.993Z,4.90
2023-05-01T07:31:16.023Z,5.10
2023-05-01T07:32:16.040Z,5.60
2023-05-01T07:33:15.989Z,5.10
2023-05-01T07:34:15.948Z,5.10
2023-05-01T07:35:15.954Z,5.60
2023-05-01T07:36:15.940Z,4.90
2023-05-01T07:37:16.065Z,5.20
2023-05-01T07:38:15.910Z,5.40
2023-05-01T07:39:15.885Z,5.00
2023-05-01T07:40:15.986Z,5.30
2023-05-01T07:41:15.880Z,5.00
2023-05-01T07:42:15.874Z,5.30
2023-05-01T07:43:15.846Z,5.20
2023-05-01T07:44:15.845Z,5.00
2023-05-01T07:45:15.824Z,5.10
2023-05-01T07:46:15.898Z,4.90
2023-05-01T07:47:15.799Z,5.00
2023-05-01T07:48:15.830Z,5.30
2023-05-01T07:49:15.782Z,4.80
2023-05-01T07:50:15.779Z,4.80
2023-05-01T07:51:15.772Z,5.10
2023-05-01T07:52:16.507Z,5.10
2023-05-01T07:53:15.740Z,5.40
2023-05-01T07:54:17.585Z,4.70
2023-05-01T07:55:22.583Z,5.50
2023-05-01T07:56:15.721Z,5.10
2023-05-01T07:57:15.695Z,5.10
2023-05-01T07:58:15.715Z,4.90
2023-05-01T07:59:15.677Z,5.20
2023-05-01T08:00:15.678Z,5.60
2023-05-01T08:01:15.666Z,5.10
2023-05-01T08:02:15.649Z,4.80
2023-05-01T08:03:15.870Z,5.30
2023-05-01T08:04:15.740Z,5.00
2023-05-01T08:05:15.604Z,5.20
2023-05-01T08:06:15.641Z,4.90
2023-05-01T08:07:15.587Z,4.90
2023-05-01T08:08:15.637Z,4.90
2023-05-01T08:09:15.560Z,5.10
2023-05-01T08:10:15.565Z,5.10
2023-05-01T08:11:15.557Z,5.10
2023-05-01T08:12:15.552Z,4.70
2023-05-01T08:13:15.555Z,4.90
2023-05-01T08:14:15.525Z,4.80
2023-05-01T08:15:15.512Z,5.40
2023-05-01T08:16:15.559Z,4.90
2023-05-01T08:17:15.484Z,5.10
2023-05-01T08:18:15.468Z,5.30
2023-05-01T08:19:15.466Z,5.40
2023-05-01T08:20:15.487Z,5.40
2023-05-01T08:21:15.460Z,5.10
2023-05-01T08:22:15.446Z,5.10
2023-05-01T08:23:15.414Z,5.30
2023-05-01T08:24:15.409Z,5.10
2023-05-01T08:25:15.391Z,5.00
2023-05-01T08:26:15.407Z,4.80
2023-05-01T08:27:15.377Z,5.20
2023-05-01T08:28:15.376Z,5.30
2023-05-01T08:29:15.355Z,5.00
2023-05-01T08:30:15.345Z,5.10
2023-05-01T08:31:15.361Z,4.70
2023-05-01T08:32:15.324Z,5.70
2023-05-01T08:33:15.328Z,5.00
2023-05-01T08:34:15.313Z,5.10
2023-05-01T08:35:15.305Z,4.80
2023-05-01T08:36:15.301Z,4.90
2023-05-01T08:37:15.276Z,5.00
2023-05-01T08:38:15.296Z,5.20
2023-05-01T08:39:15.266Z,4.80
2023-05-01T08:40:15.253Z,4.90
2023-05-01T08:41:15.238Z,4.70
2023-05-01T08:42:15.216Z,4.60
2023-05-01T08:43:15.231Z,4.80
2023-05-01T08:44:15.191Z,4.70
2023-05-01T08:45:15.182Z,4.90
2023-05-01T08:46:15.239Z,4.90
2023-05-01T08:47:15.159Z,4.80
2023-05-01T08:48:15.164Z,4.90
2023-05-01T08:49:15.149Z,4.70
2023-05-01T08:50:15.126Z,5.10
2023-05-01T08:51:15.122Z,4.60
2023-05-01T08:52:15.148Z,4.80
2023-05-01T08:53:15.097Z,5.30
2023-05-01T08:54:15.092Z,4.70
2023-05-01T08:55:15.106Z,4.70
2023-05-01T08:56:15.074Z,4.60
2023-05-01T08:57:15.051Z,4.70
2023-05-01T08:58:15.080Z,4.50
2023-05-01T08:59:15.047Z,4.80
2023-05-01T09:00:15.026Z,5.10
2023-05-01T09:01:15.064Z,4.90
2023-05-01T09:02:14.994Z,4.70
2023-05-01T09:03:15.037Z,4.70
2023-05-01T09:04:15.032Z,4.80
2023-05-01T09:05:14.966Z,4.90
2023-05-01T09:06:14.975Z,5.00
2023-05-01T09:07:14.937Z,5.00
2023-05-01T09:08:14.928Z,4.60
2023-05-01T09:09:14.921Z,4.90
2023-05-01T09:10:14.914Z,5.30
2023-05-01T09:11:14.909Z,4.70
2023-05-01T09:12:14.892Z,4.60
2023-05-01T09:13:14.891Z,5.10
2023-05-01T09:14:14.872Z,4.60
2023-05-01T09:15:14.859Z,4.60
2023-05-01T09:16:14.884Z,5.20
2023-05-01T09:17:14.840Z,4.60
2023-05-01T09:18:14.922Z,4.50
2023-05-01T09:19:14.817Z,4.30
2023-05-01T09:20:14.825Z,4.80
2023-05-01T09:21:14.809Z,4.20
2023-05-01T09:22:14.795Z,4.90
2023-05-01T09:23:14.779Z,4.60
2023-05-01T09:24:14.773Z,4.40
2023-05-01T09:25:14.775Z,4.30
2023-05-01T09:26:14.767Z,4.30
2023-05-01T09:27:14.800Z,4.00
2023-05-01T09:28:14.730Z,4.20
2023-05-01T09:29:14.726Z,4.40
2023-05-01T09:30:14.741Z,4.60
2023-05-01T09:31:14.815Z,4.40
2023-05-01T09:32:15.893Z,4.30
2023-05-01T09:33:15.850Z,4.60
2023-05-01T09:34:15.796Z,4.90
2023-05-01T09:35:15.814Z,4.50
2023-05-01T09:36:15.959Z,4.40
2023-05-01T09:37:15.789Z,4.80
2023-05-01T09:38:15.760Z,4.20
2023-05-01T09:39:15.769Z,4.90
2023-05-01T09:40:15.772Z,4.20
2023-05-01T09:41:15.760Z,4.70
2023-05-01T09:42:15.734Z,4.50
2023-05-01T09:43:15.704Z,4.30
2023-05-01T09:44:15.737Z,4.30
2023-05-01T09:45:15.700Z,4.20
2023-05-01T09:46:15.747Z,4.20
2023-05-01T09:47:15.673Z,4.00
2023-05-01T09:48:15.693Z,4.40
2023-05-01T09:49:15.648Z,4.10
2023-05-01T09:50:15.696Z,4.20
2023-05-01T09:51:15.623Z,4.10
2023-05-01T09:52:15.642Z,4.10
2023-05-01T09:53:15.612Z,4.90
2023-05-01T09:54:15.593Z,4.50
2023-05-01T09:55:15.626Z,4.50
2023-05-01T09:56:15.598Z,4.10
2023-05-01T09:57:15.629Z,4.40
2023-05-01T09:58:15.608Z,4.30
2023-05-01T09:59:15.608Z,4.00
2023-05-01T10:00:15.588Z,4.10
2023-05-01T10:01:15.590Z,3.90
2023-05-01T10:02:15.570Z,4.20
2023-05-01T10:03:15.620Z,4.00
2023-05-01T10:04:15.543Z,4.30
2023-05-01T10:05:15.541Z,4.10
2023-05-01T10:06:15.516Z,4.30
2023-05-01T10:07:15.522Z,4.00
2023-05-01T10:08:15.482Z,3.90
2023-05-01T10:09:15.553Z,3.60
2023-05-01T10:10:15.495Z,3.80
2023-05-01T10:11:15.476Z,3.60
2023-05-01T10:12:15.443Z,4.10
2023-05-01T10:13:15.429Z,3.70
2023-05-01T10:14:15.412Z,3.80
2023-05-01T10:15:24.484Z,3.70
2023-05-01T10:16:17.448Z,3.90
2023-05-01T10:17:15.442Z,3.60
2023-05-01T10:18:15.495Z,3.80
2023-05-01T10:19:15.378Z,3.60
2023-05-01T10:20:15.362Z,3.70
2023-05-01T10:21:15.379Z,3.30
2023-05-01T10:22:15.414Z,3.40
2023-05-01T10:23:15.378Z,3.60
2023-05-01T10:24:15.383Z,3.40
2023-05-01T10:25:15.336Z,3.80
2023-05-01T10:26:15.322Z,3.60
2023-05-01T10:27:15.326Z,3.50
2023-05-01T10:28:15.293Z,3.50
2023-05-01T10:29:15.307Z,4.00
2023-05-01T10:30:15.285Z,3.40
2023-05-01T10:31:15.309Z,3.60
2023-05-01T10:32:15.276Z,3.60
2023-05-01T10:33:15.308Z,3.40
2023-05-01T10:34:15.239Z,2.90
2023-05-01T10:35:15.346Z,3.00
2023-05-01T10:36:15.232Z,3.70
2023-05-01T10:37:15.231Z,3.50
2023-05-01T10:38:15.202Z,3.20
2023-05-01T10:39:15.195Z,3.40
2023-05-01T10:40:15.232Z,3.40
2023-05-01T10:41:15.168Z,3.40
2023-05-01T10:42:15.209Z,3.40
2023-05-01T10:43:15.181Z,3.50
2023-05-01T10:44:15.147Z,3.50
2023-05-01T10:45:15.114Z,3.20
2023-05-01T10:46:15.147Z,2.90
2023-05-01T10:47:15.121Z,3.20
2023-05-01T10:48:15.098Z,3.30
2023-05-01T10:49:15.111Z,3.30
2023-05-01T10:50:15.299Z,3.40
2023-05-01T10:51:15.082Z,3.40
2023-05-01T10:52:15.097Z,3.50
2023-05-01T10:53:15.095Z,3.40
2023-05-01T10:54:15.052Z,3.70
2023-05-01T10:55:15.054Z,3.60
2023-05-01T10:56:15.039Z,3.30
2023-05-01T10:57:15.064Z,3.60
2023-05-01T10:58:15.034Z,3.30
2023-05-01T10:59:15.033Z,3.00
2023-05-01T11:00:15.057Z,3.30
2023-05-01T11:01:14.995Z,3.40
2023-05-01T11:02:15.070Z,3.50
2023-05-01T11:03:15.011Z,3.20
2023-05-01T11:04:14.969Z,3.50
2023-05-01T11:05:15.068Z,3.30
2023-05-01T11:06:15.052Z,3.30
2023-05-01T11:07:15.047Z,3.00
2023-05-01T11:08:14.938Z,3.00
2023-05-01T11:09:14.940Z,3.50
2023-05-01T11:10:14.924Z,3.20
2023-05-01T11:11:14.909Z,3.30
2023-05-01T11:12:14.899Z,2.90
2023-05-01T11:13:14.876Z,2.80
2023-05-01T11:14:14.848Z,2.80
2023-05-01T11:15:14.863Z,3.20
2023-05-01T11:16:14.896Z,2.90
2023-05-01T11:17:14.858Z,3.20
2023-05-01T11:18:14.866Z,3.50
2023-05-01T11:19:14.802Z,3.20
2023-05-01T11:20:14.815Z,2.80
2023-05-01T11:21:14.772Z,2.90
2023-05-01T11:22:14.782Z,2.70
2023-05-01T11:23:14.927Z,2.60
2023-05-01T11:24:14.739Z,2.70
2023-05-01T11:25:14.754Z,2.40
2023-05-01T11:26:14.739Z,2.50
2023-05-01T11:27:14.738Z,2.60
2023-05-01T11:28:14.734Z,3.00
2023-05-01T11:29:14.713Z,2.70
2023-05-01T11:30:14.710Z,2.70
2023-05-01T11:31:14.717Z,2.60
2023-05-01T11:32:14.931Z,2.40
2023-05-01T11:33:14.716Z,2.80
2023-05-01T11:34:14.678Z,2.70
2023-05-01T11:35:14.692Z,2.70
2023-05-01T11:36:14.694Z,2.70
2023-05-01T11:37:14.617Z,2.80
2023-05-01T11:38:14.596Z,2.70
2023-05-01T11:39:14.578Z,2.70
2023-05-01T11:40:14.584Z,2.70
2023-05-01T11:41:14.583Z,2.90
2023-05-01T11:42:14.641Z,2.70
2023-05-01T11:43:14.621Z,2.90
2023-05-01T11:44:14.574Z,2.90
2023-05-01T11:45:14.560Z,2.80
2023-05-01T11:46:14.577Z,2.70
2023-05-01T11:47:14.544Z,2.80
2023-05-01T11:48:14.653Z,2.90
2023-05-01T11:49:14.522Z,2.70
2023-05-01T11:50:14.504Z,3.30
2023-05-01T11:51:14.497Z,3.10
2023-05-01T11:52:14.507Z,3.10
2023-05-01T11:53:14.511Z,2.80
2023-05-01T11:54:15.745Z,2.90
2023-05-01T11:55:15.459Z,2.90
2023-05-01T11:56:25.367Z,3.10
2023-05-01T11:57:16.453Z,2.90
2023-05-01T11:58:14.394Z,3.00
2023-05-01T11:59:15.440Z,2.80
2023-05-01T12:00:14.409Z,2.70
2023-05-01T12:01:14.391Z,2.90
2023-05-01T12:02:14.461Z,3.10
2023-05-01T12:03:14.695Z,3.40
2023-05-01T12:04:14.614Z,3.00
2023-05-01T12:05:14.382Z,3.10
2023-05-01T12:06:14.426Z,2.80
2023-05-01T12:07:14.352Z,3.00
2023-05-01T12:08:14.332Z,2.80
2023-05-01T12:09:14.314Z,2.70
2023-05-01T12:10:14.301Z,2.60
2023-05-01T12:11:14.269Z,2.90
2023-05-01T12:12:15.313Z,2.60
2023-05-01T12:13:14.316Z,2.80
2023-05-01T12:14:14.300Z,2.30
2023-05-01T12:15:14.310Z,2.50
2023-05-01T12:16:14.254Z,2.60
2023-05-01T12:17:14.326Z,2.90
2023-05-01T12:18:15.359Z,2.60
2023-05-01T12:19:14.217Z,2.70
2023-05-01T12:20:14.246Z,2.50
2023-05-01T12:21:14.224Z,2.60
2023-05-01T12:22:14.234Z,2.40
2023-05-01T12:23:14.196Z,2.70
2023-05-01T12:24:14.195Z,2.60
2023-05-01T12:25:14.185Z,2.80
2023-05-01T12:26:14.151Z,2.90
2023-05-01T12:27:14.185Z,2.80
2023-05-01T12:28:14.144Z,2.50
2023-05-01T12:29:14.125Z,2.80
2023-05-01T12:30:14.127Z,2.30
2023-05-01T12:31:14.131Z,2.50
2023-05-01T12:32:14.109Z,2.60
2023-05-01T12:33:14.087Z,2.30
2023-05-01T12:34:14.078Z,2.40
2023-05-01T12:35:14.120Z,2.40
2023-05-01T12:36:14.038Z,2.50
2023-05-01T12:37:14.042Z,2.10
2023-05-01T12:38:14.040Z,2.50
2023-05-01T12:39:15.023Z,2.50
2023-05-01T12:40:14.095Z,2.70
2023-05-01T12:41:14.043Z,2.60
2023-05-01T12:42:14.020Z,2.70
2023-05-01T12:43:14.005Z,2.80
2023-05-01T12:44:13.981Z,2.60
2023-05-01T12:45:14.990Z,2.50
2023-05-01T12:46:14.006Z,2.50
2023-05-01T12:47:13.956Z,2.80
2023-05-01T12:48:13.993Z,2.70
2023-05-01T12:49:13.927Z,2.80
2023-05-01T12:50:13.884Z,2.60
2023-05-01T12:51:13.919Z,2.40
2023-05-01T12:52:13.899Z,2.90
2023-05-01T12:53:13.887Z,2.60
2023-05-01T12:54:13.861Z,2.20
2023-05-01T12:55:13.876Z,2.70
2023-05-01T12:56:13.851Z,2.50
2023-05-01T12:57:14.877Z,2.40
2023-05-01T12:58:13.827Z,2.30
2023-05-01T12:59:13.835Z,2.50
2023-05-01T13:00:13.819Z,2.40
2023-05-01T13:01:13.851Z,2.50
2023-05-01T13:02:13.796Z,2.70
2023-05-01T13:03:13.884Z,2.40
2023-05-01T13:04:13.820Z,2.60
2023-05-01T13:05:13.754Z,2.60
2023-05-01T13:06:13.805Z,2.60
2023-05-01T13:07:13.775Z,2.50
2023-05-01T13:08:13.715Z,2.40
2023-05-01T13:09:13.709Z,2.40
2023-05-01T13:10:13.750Z,2.50
2023-05-01T13:11:13.756Z,2.40
2023-05-01T13:12:13.684Z,2.20
2023-05-01T13:13:13.661Z,2.50
2023-05-01T13:14:14.634Z,2.60
2023-05-01T13:15:13.624Z,2.60
2023-05-01T13:16:13.682Z,2.50
2023-05-01T13:17:13.655Z,2.30
2023-05-01T13:18:13.626Z,2.40
2023-05-01T13:19:13.635Z,2.40
2023-05-01T13:20:13.613Z,2.50